Delta Virtual Airport Information Service

Heraklion International Airport

ICAO: LGIR Country: Greece
Latitude: 35.3397 Longitude: 25.1803
Latest Arrival : DAC2689 (DTTJ-LGIR) Latest Departure : DAC2098 (LGIR-LOWW)


WX CaptureLIVE
Data provided by noaa.gov | Fetched at 00:02:04

METAR : LGIR 080550Z 17003KT 9999 SCT030 11/09 Q1019 NOSIG

TAF : LGIR 080500Z 0806/0906 07008KT 9999 SCT020 PROB30 TEMPO 0813/0821 5000 RA SCT020 BKN070


Runway Data for LGIR
Data provided by openaviationdata.com

Runway ID Mag Var Hdg Length Elevation Surface ILS Freq ILS Id ILS Slope
9 3 91° 8896 ft 71 ft Asphalt -- -- --
12 3 123° 5138 ft 71 ft Asphalt -- -- --
27 3 271° 8896 ft 71 ft Asphalt -- -- --
30 3 303° 5138 ft 71 ft Asphalt -- -- --

Heraklion International Airport, Greece
Use only for reference purposes



Not for navigational purposes.